sensor_id;sensor_type;location;lat;lon;timestamp;pressure;altitude;pressure_sealevel;temperature;humidity
35649;BME280;21768;48.562;13.414;2023-01-25T00:01:29;98909.06;;;4.64;63.91
35649;BME280;21768;48.562;13.414;2023-01-25T00:03:55;98914.22;;;4.65;63.73
35649;BME280;21768;48.562;13.414;2023-01-25T00:06:20;98914.75;;;4.70;63.96
35649;BME280;21768;48.562;13.414;2023-01-25T00:08:49;98910.59;;;4.70;64.02
35649;BME280;21768;48.562;13.414;2023-01-25T00:11:15;98915.78;;;4.72;63.81
35649;BME280;21768;48.562;13.414;2023-01-25T00:13:44;98911.66;;;4.72;64.01
35649;BME280;21768;48.562;13.414;2023-01-25T00:16:10;98905.59;;;4.70;63.96
35649;BME280;21768;48.562;13.414;2023-01-25T00:18:35;98901.91;;;4.67;63.92
35649;BME280;21768;48.562;13.414;2023-01-25T00:21:15;98911.91;;;4.67;63.68
35649;BME280;21768;48.562;13.414;2023-01-25T00:23:41;98903.69;;;4.68;63.76
35649;BME280;21768;48.562;13.414;2023-01-25T00:26:07;98911.19;;;4.68;63.59
35649;BME280;21768;48.562;13.414;2023-01-25T00:28:32;98905.31;;;4.67;63.75
35649;BME280;21768;48.562;13.414;2023-01-25T00:31:03;98903.53;;;4.66;63.98
35649;BME280;21768;48.562;13.414;2023-01-25T00:34:04;98906.91;;;4.67;63.79
35649;BME280;21768;48.562;13.414;2023-01-25T00:39:03;98900.47;;;4.69;63.61
35649;BME280;21768;48.562;13.414;2023-01-25T00:41:28;98895.31;;;4.67;63.64
35649;BME280;21768;48.562;13.414;2023-01-25T00:43:54;98900.84;;;4.65;63.67
35649;BME280;21768;48.562;13.414;2023-01-25T00:46:20;98904.06;;;4.64;63.78
35649;BME280;21768;48.562;13.414;2023-01-25T00:48:45;98899.41;;;4.67;63.78
35649;BME280;21768;48.562;13.414;2023-01-25T00:51:11;98908.50;;;4.66;63.82
35649;BME280;21768;48.562;13.414;2023-01-25T00:53:36;98900.66;;;4.63;63.59
35649;BME280;21768;48.562;13.414;2023-01-25T00:56:03;98905.31;;;4.60;63.55
35649;BME280;21768;48.562;13.414;2023-01-25T00:58:28;98900.50;;;4.62;63.61
35649;BME280;21768;48.562;13.414;2023-01-25T01:00:54;98892.84;;;4.60;63.75
35649;BME280;21768;48.562;13.414;2023-01-25T01:03:20;98894.25;;;4.58;63.73
35649;BME280;21768;48.562;13.414;2023-01-25T01:05:45;98891.59;;;4.57;63.85
35649;BME280;21768;48.562;13.414;2023-01-25T01:08:12;98886.41;;;4.55;63.92
35649;BME280;21768;48.562;13.414;2023-01-25T01:10:38;98894.81;;;4.56;63.71
35649;BME280;21768;48.562;13.414;2023-01-25T01:13:03;98889.81;;;4.56;63.68
35649;BME280;21768;48.562;13.414;2023-01-25T01:15:29;98887.13;;;4.54;63.85
35649;BME280;21768;48.562;13.414;2023-01-25T01:17:54;98900.16;;;4.59;63.79
35649;BME280;21768;48.562;13.414;2023-01-25T01:20:19;98888.38;;;4.58;63.85
35649;BME280;21768;48.562;13.414;2023-01-25T01:22:45;98891.94;;;4.60;64.24
35649;BME280;21768;48.562;13.414;2023-01-25T01:25:10;98893.72;;;4.61;64.07
35649;BME280;21768;48.562;13.414;2023-01-25T01:27:37;98892.84;;;4.60;63.99
35649;BME280;21768;48.562;13.414;2023-01-25T01:30:03;98892.47;;;4.57;64.11
35649;BME280;21768;48.562;13.414;2023-01-25T01:32:29;98896.41;;;4.55;63.95
35649;BME280;21768;48.562;13.414;2023-01-25T01:34:54;98885.69;;;4.56;64.01
35649;BME280;21768;48.562;13.414;2023-01-25T01:37:20;98883.94;;;4.55;64.06
35649;BME280;21768;48.562;13.414;2023-01-25T01:39:45;98881.59;;;4.57;63.94
35649;BME280;21768;48.562;13.414;2023-01-25T01:42:10;98884.13;;;4.50;63.95
35649;BME280;21768;48.562;13.414;2023-01-25T01:47:12;98879.91;;;4.34;64.38
35649;BME280;21768;48.562;13.414;2023-01-25T01:49:39;98887.97;;;4.25;64.19
35649;BME280;21768;48.562;13.414;2023-01-25T01:52:11;98880.72;;;4.19;64.26
35649;BME280;21768;48.562;13.414;2023-01-25T01:54:43;98887.09;;;4.24;64.20
35649;BME280;21768;48.562;13.414;2023-01-25T01:57:21;98889.22;;;4.21;64.40
35649;BME280;21768;48.562;13.414;2023-01-25T02:02:13;98882.31;;;4.19;64.07
35649;BME280;21768;48.562;13.414;2023-01-25T02:04:39;98875.84;;;4.21;64.34
35649;BME280;21768;48.562;13.414;2023-01-25T02:07:33;98875.31;;;4.23;64.53
35649;BME280;21768;48.562;13.414;2023-01-25T02:09:59;98871.19;;;4.31;64.30
35649;BME280;21768;48.562;13.414;2023-01-25T02:12:26;98883.66;;;4.38;64.35
35649;BME280;21768;48.562;13.414;2023-01-25T02:14:53;98879.34;;;4.44;64.12
35649;BME280;21768;48.562;13.414;2023-01-25T02:17:27;98880.25;;;4.44;64.32
35649;BME280;21768;48.562;13.414;2023-01-25T02:20:12;98882.41;;;4.41;64.17
35649;BME280;21768;48.562;13.414;2023-01-25T02:22:55;98887.75;;;4.44;64.08
35649;BME280;21768;48.562;13.414;2023-01-25T02:25:24;98892.75;;;4.44;64.13
35649;BME280;21768;48.562;13.414;2023-01-25T02:27:52;98897.56;;;4.43;64.26
35649;BME280;21768;48.562;13.414;2023-01-25T02:30:20;98894.50;;;4.45;64.13
35649;BME280;21768;48.562;13.414;2023-01-25T02:32:45;98886.34;;;4.39;63.89
35649;BME280;21768;48.562;13.414;2023-01-25T02:35:21;98890.97;;;4.36;64.15
35649;BME280;21768;48.562;13.414;2023-01-25T02:37:48;98892.22;;;4.40;64.31
35649;BME280;21768;48.562;13.414;2023-01-25T02:40:18;98890.44;;;4.39;64.19
35649;BME280;21768;48.562;13.414;2023-01-25T02:42:44;98888.28;;;4.42;64.22
35649;BME280;21768;48.562;13.414;2023-01-25T02:45:13;98884.91;;;4.41;63.99
35649;BME280;21768;48.562;13.414;2023-01-25T02:47:39;98883.13;;;4.40;64.15
35649;BME280;21768;48.562;13.414;2023-01-25T02:50:05;98879.91;;;4.41;63.99
35649;BME280;21768;48.562;13.414;2023-01-25T02:52:31;98883.47;;;4.43;64.09
35649;BME280;21768;48.562;13.414;2023-01-25T02:54:56;98883.47;;;4.43;63.97
35649;BME280;21768;48.562;13.414;2023-01-25T02:57:22;98884.19;;;4.42;63.99
35649;BME280;21768;48.562;13.414;2023-01-25T02:59:47;98877.88;;;4.46;64.01
35649;BME280;21768;48.562;13.414;2023-01-25T03:02:13;98888.47;;;4.43;64.02
35649;BME280;21768;48.562;13.414;2023-01-25T03:04:38;98874.91;;;4.41;63.92
35649;BME280;21768;48.562;13.414;2023-01-25T03:07:04;98873.84;;;4.39;64.21
35649;BME280;21768;48.562;13.414;2023-01-25T03:09:29;98866.50;;;4.41;64.18
35649;BME280;21768;48.562;13.414;2023-01-25T03:11:55;98858.47;;;4.43;64.00
35649;BME280;21768;48.562;13.414;2023-01-25T03:14:20;98858.31;;;4.42;64.07
35649;BME280;21768;48.562;13.414;2023-01-25T03:16:46;98860.25;;;4.44;64.08
35649;BME280;21768;48.562;13.414;2023-01-25T03:19:11;98866.16;;;4.45;63.98
35649;BME280;21768;48.562;13.414;2023-01-25T03:21:39;98874.50;;;4.45;63.96
35649;BME280;21768;48.562;13.414;2023-01-25T03:24:05;98867.06;;;4.38;63.74
35649;BME280;21768;48.562;13.414;2023-01-25T03:26:30;98862.44;;;4.34;63.64
35649;BME280;21768;48.562;13.414;2023-01-25T03:29:15;98859.22;;;4.35;63.60
35649;BME280;21768;48.562;13.414;2023-01-25T03:31:41;98858.16;;;4.33;63.68
35649;BME280;21768;48.562;13.414;2023-01-25T03:34:06;98854.41;;;4.30;63.94
35649;BME280;21768;48.562;13.414;2023-01-25T03:36:31;98850.13;;;4.29;63.92
35649;BME280;21768;48.562;13.414;2023-01-25T03:38:57;98850.84;;;4.28;63.97
35649;BME280;21768;48.562;13.414;2023-01-25T03:41:22;98847.47;;;4.27;63.77
35649;BME280;21768;48.562;13.414;2023-01-25T03:43:47;98842.66;;;4.29;63.62
35649;BME280;21768;48.562;13.414;2023-01-25T03:46:13;98846.75;;;4.28;63.77
35649;BME280;21768;48.562;13.414;2023-01-25T03:48:38;98851.41;;;4.25;63.83
35649;BME280;21768;48.562;13.414;2023-01-25T03:51:04;98851.81;;;4.14;63.68
35649;BME280;21768;48.562;13.414;2023-01-25T03:53:29;98850.41;;;4.09;63.80
35649;BME280;21768;48.562;13.414;2023-01-25T03:58:24;98837.94;;;4.09;63.86
35649;BME280;21768;48.562;13.414;2023-01-25T04:00:49;98846.47;;;4.11;63.69
35649;BME280;21768;48.562;13.414;2023-01-25T04:03:15;98842.19;;;4.10;63.99
35649;BME280;21768;48.562;13.414;2023-01-25T04:05:42;98838.28;;;4.12;64.00
35649;BME280;21768;48.562;13.414;2023-01-25T04:08:07;98836.13;;;4.15;64.00
35649;BME280;21768;48.562;13.414;2023-01-25T04:10:33;98834.88;;;4.19;64.02
35649;BME280;21768;48.562;13.414;2023-01-25T04:12:58;98840.75;;;4.19;63.74
35649;BME280;21768;48.562;13.414;2023-01-25T04:15:23;98824.72;;;4.10;63.81
35649;BME280;21768;48.562;13.414;2023-01-25T04:17:49;98827.97;;;4.02;63.88
35649;BME280;21768;48.562;13.414;2023-01-25T04:20:14;98822.25;;;4.03;63.95
35649;BME280;21768;48.562;13.414;2023-01-25T04:22:40;98815.81;;;4.05;63.93
35649;BME280;21768;48.562;13.414;2023-01-25T04:25:06;98816.72;;;4.05;63.98
35649;BME280;21768;48.562;13.414;2023-01-25T04:27:31;98817.78;;;4.07;64.11
35649;BME280;21768;48.562;13.414;2023-01-25T04:29:57;98813.66;;;4.08;63.77
35649;BME280;21768;48.562;13.414;2023-01-25T04:32:22;98805.66;;;4.03;63.96
35649;BME280;21768;48.562;13.414;2023-01-25T04:34:48;98814.75;;;4.03;64.05
35649;BME280;21768;48.562;13.414;2023-01-25T04:37:13;98804.03;;;4.04;64.22
35649;BME280;21768;48.562;13.414;2023-01-25T04:39:38;98801.91;;;4.07;64.24
35649;BME280;21768;48.562;13.414;2023-01-25T04:42:04;98797.28;;;4.03;64.10
35649;BME280;21768;48.562;13.414;2023-01-25T04:44:29;98798.72;;;4.01;64.15
35649;BME280;21768;48.562;13.414;2023-01-25T04:46:54;98803.69;;;4.01;64.12
35649;BME280;21768;48.562;13.414;2023-01-25T04:49:20;98801.56;;;4.04;64.06
35649;BME280;21768;48.562;13.414;2023-01-25T04:51:45;98797.97;;;4.09;64.22
35649;BME280;21768;48.562;13.414;2023-01-25T04:54:10;98800.28;;;4.07;64.23
35649;BME280;21768;48.562;13.414;2023-01-25T04:56:36;98801.19;;;4.08;64.28
35649;BME280;21768;48.562;13.414;2023-01-25T04:59:01;98793.69;;;4.08;63.83
35649;BME280;21768;48.562;13.414;2023-01-25T05:01:26;98797.09;;;4.01;64.05
35649;BME280;21768;48.562;13.414;2023-01-25T05:03:52;98802.63;;;3.99;64.23
35649;BME280;21768;48.562;13.414;2023-01-25T05:06:17;98801.56;;;3.97;64.17
35649;BME280;21768;48.562;13.414;2023-01-25T05:08:42;98794.47;;;3.93;64.28
35649;BME280;21768;48.562;13.414;2023-01-25T05:11:08;98791.66;;;3.83;64.44
35649;BME280;21768;48.562;13.414;2023-01-25T05:13:33;98784.88;;;3.82;64.54
35649;BME280;21768;48.562;13.414;2023-01-25T05:15:58;98791.13;;;3.78;64.71
35649;BME280;21768;48.562;13.414;2023-01-25T05:18:24;98791.00;;;3.69;64.50
35649;BME280;21768;48.562;13.414;2023-01-25T05:20:54;98797.09;;;3.57;65.14
35649;BME280;21768;48.562;13.414;2023-01-25T05:23:20;98792.50;;;3.46;65.17
35649;BME280;21768;48.562;13.414;2023-01-25T05:25:46;98797.31;;;3.45;65.37
35649;BME280;21768;48.562;13.414;2023-01-25T05:28:29;98789.25;;;3.47;65.36
35649;BME280;21768;48.562;13.414;2023-01-25T05:30:55;98793.88;;;3.51;65.37
35649;BME280;21768;48.562;13.414;2023-01-25T05:33:20;98790.31;;;3.56;65.24
35649;BME280;21768;48.562;13.414;2023-01-25T05:35:45;98788.34;;;3.61;65.29
35649;BME280;21768;48.562;13.414;2023-01-25T05:38:11;98774.06;;;3.67;65.20
35649;BME280;21768;48.562;13.414;2023-01-25T05:40:36;98774.56;;;3.71;65.17
35649;BME280;21768;48.562;13.414;2023-01-25T05:43:01;98771.88;;;3.77;65.19
35649;BME280;21768;48.562;13.414;2023-01-25T05:45:27;98770.28;;;3.78;65.15
35649;BME280;21768;48.562;13.414;2023-01-25T05:47:58;98763.69;;;3.78;65.31
35649;BME280;21768;48.562;13.414;2023-01-25T05:50:25;98764.75;;;3.80;65.21
35649;BME280;21768;48.562;13.414;2023-01-25T05:52:50;98771.69;;;3.83;65.22
35649;BME280;21768;48.562;13.414;2023-01-25T05:55:16;98776.31;;;3.87;65.13
35649;BME280;21768;48.562;13.414;2023-01-25T05:57:42;98777.91;;;3.86;65.31
35649;BME280;21768;48.562;13.414;2023-01-25T06:00:08;98775.94;;;3.91;65.17
35649;BME280;21768;48.562;13.414;2023-01-25T06:02:33;98780.06;;;3.90;64.89
35649;BME280;21768;48.562;13.414;2023-01-25T06:04:59;98774.16;;;3.90;65.05
35649;BME280;21768;48.562;13.414;2023-01-25T06:07:24;98774.50;;;3.93;65.04
35649;BME280;21768;48.562;13.414;2023-01-25T06:09:50;98774.50;;;3.93;65.09
35649;BME280;21768;48.562;13.414;2023-01-25T06:12:19;98770.94;;;3.91;65.23
35649;BME280;21768;48.562;13.414;2023-01-25T06:14:45;98773.63;;;3.92;65.08
35649;BME280;21768;48.562;13.414;2023-01-25T06:17:11;98776.59;;;3.97;64.95
35649;BME280;21768;48.562;13.414;2023-01-25T06:19:36;98773.41;;;3.98;65.21
35649;BME280;21768;48.562;13.414;2023-01-25T06:22:02;98763.41;;;3.98;65.39
35649;BME280;21768;48.562;13.414;2023-01-25T06:24:27;98767.31;;;4.03;64.73
35649;BME280;21768;48.562;13.414;2023-01-25T06:26:53;98774.59;;;4.08;65.01
35649;BME280;21768;48.562;13.414;2023-01-25T06:29:18;98769.41;;;4.14;64.68
35649;BME280;21768;48.562;13.414;2023-01-25T06:31:44;98779.03;;;4.18;64.56
35649;BME280;21768;48.562;13.414;2023-01-25T06:34:09;98775.63;;;4.18;64.61
35649;BME280;21768;48.562;13.414;2023-01-25T06:36:34;98782.00;;;4.23;64.58
35649;BME280;21768;48.562;13.414;2023-01-25T06:39:00;98778.13;;;4.18;64.39
35649;BME280;21768;48.562;13.414;2023-01-25T06:41:26;98777.44;;;4.12;64.58
35649;BME280;21768;48.562;13.414;2023-01-25T06:43:51;98785.47;;;4.09;64.65
35649;BME280;21768;48.562;13.414;2023-01-25T06:46:18;98778.91;;;4.02;64.77
35649;BME280;21768;48.562;13.414;2023-01-25T06:48:43;98784.09;;;3.97;64.76
35649;BME280;21768;48.562;13.414;2023-01-25T06:51:11;98782.50;;;3.97;64.84
35649;BME280;21768;48.562;13.414;2023-01-25T06:53:39;98779.84;;;3.96;64.66
35649;BME280;21768;48.562;13.414;2023-01-25T06:58:35;98771.84;;;3.91;64.59
35649;BME280;21768;48.562;13.414;2023-01-25T07:03:29;98770.94;;;3.91;64.72
35649;BME280;21768;48.562;13.414;2023-01-25T07:06:02;98763.22;;;3.96;64.71
35649;BME280;21768;48.562;13.414;2023-01-25T07:08:28;98756.31;;;3.94;64.71
35649;BME280;21768;48.562;13.414;2023-01-25T07:10:55;98760.63;;;3.88;64.57
35649;BME280;21768;48.562;13.414;2023-01-25T07:13:21;98753.16;;;3.81;64.79
35649;BME280;21768;48.562;13.414;2023-01-25T07:15:54;98763.13;;;3.88;64.79
35649;BME280;21768;48.562;13.414;2023-01-25T07:18:20;98756.00;;;3.76;64.62
35649;BME280;21768;48.562;13.414;2023-01-25T07:20:45;98754.59;;;3.79;64.87
35649;BME280;21768;48.562;13.414;2023-01-25T07:23:11;98759.94;;;3.82;64.58
35649;BME280;21768;48.562;13.414;2023-01-25T07:25:36;98759.56;;;3.79;64.40
35649;BME280;21768;48.562;13.414;2023-01-25T07:28:02;98751.44;;;3.65;64.56
35649;BME280;21768;48.562;13.414;2023-01-25T07:30:27;98745.56;;;3.65;64.89
35649;BME280;21768;48.562;13.414;2023-01-25T07:32:53;98746.81;;;3.68;64.81
35649;BME280;21768;48.562;13.414;2023-01-25T07:35:20;98750.91;;;3.68;64.88
35649;BME280;21768;48.562;13.414;2023-01-25T07:37:45;98745.75;;;3.66;64.91
35649;BME280;21768;48.562;13.414;2023-01-25T07:40:10;98748.59;;;3.69;64.69
35649;BME280;21768;48.562;13.414;2023-01-25T07:42:37;98746.56;;;3.74;64.75
35649;BME280;21768;48.562;13.414;2023-01-25T07:45:03;98756.16;;;3.85;64.91
35649;BME280;21768;48.562;13.414;2023-01-25T07:47:29;98761.84;;;3.91;64.84
35649;BME280;21768;48.562;13.414;2023-01-25T07:49:54;98754.53;;;3.93;64.85
35649;BME280;21768;48.562;13.414;2023-01-25T07:52:19;98756.63;;;3.97;64.68
35649;BME280;21768;48.562;13.414;2023-01-25T07:54:44;98751.63;;;3.97;64.70
35649;BME280;21768;48.562;13.414;2023-01-25T07:57:11;98754.13;;;3.97;64.43
35649;BME280;21768;48.562;13.414;2023-01-25T07:59:36;98748.44;;;3.98;64.55
35649;BME280;21768;48.562;13.414;2023-01-25T08:02:02;98748.59;;;3.99;64.62
35649;BME280;21768;48.562;13.414;2023-01-25T08:04:27;98750.56;;;4.02;64.55
35649;BME280;21768;48.562;13.414;2023-01-25T08:06:53;98744.13;;;4.04;64.56
35649;BME280;21768;48.562;13.414;2023-01-25T08:09:18;98743.56;;;4.06;64.55
35649;BME280;21768;48.562;13.414;2023-01-25T08:11:44;98742.47;;;4.12;64.43
35649;BME280;21768;48.562;13.414;2023-01-25T08:14:10;98741.38;;;4.17;64.46
35649;BME280;21768;48.562;13.414;2023-01-25T08:16:36;98733.00;;;4.16;64.46
35649;BME280;21768;48.562;13.414;2023-01-25T08:19:02;98743.72;;;4.15;64.44
35649;BME280;21768;48.562;13.414;2023-01-25T08:21:30;98739.63;;;4.16;64.38
35649;BME280;21768;48.562;13.414;2023-01-25T08:23:57;98738.72;;;4.15;64.40
35649;BME280;21768;48.562;13.414;2023-01-25T08:26:23;98739.09;;;4.11;64.28
35649;BME280;21768;48.562;13.414;2023-01-25T08:28:48;98743.38;;;4.12;64.39
35649;BME280;21768;48.562;13.414;2023-01-25T08:31:20;98748.38;;;4.12;64.45
35649;BME280;21768;48.562;13.414;2023-01-25T08:33:46;98746.59;;;4.11;64.39
35649;BME280;21768;48.562;13.414;2023-01-25T08:36:13;98751.25;;;4.08;64.22
35649;BME280;21768;48.562;13.414;2023-01-25T08:38:39;98743.03;;;4.09;64.22
35649;BME280;21768;48.562;13.414;2023-01-25T08:41:05;98748.03;;;4.09;64.33
35649;BME280;21768;48.562;13.414;2023-01-25T08:43:30;98742.47;;;4.12;64.24
35649;BME280;21768;48.562;13.414;2023-01-25T08:45:56;98741.03;;;4.14;64.09
35649;BME280;21768;48.562;13.414;2023-01-25T08:48:22;98740.00;;;4.12;63.97
35649;BME280;21768;48.562;13.414;2023-01-25T08:50:47;98743.56;;;4.06;64.03
35649;BME280;21768;48.562;13.414;2023-01-25T08:53:12;98736.25;;;4.08;64.17
35649;BME280;21768;48.562;13.414;2023-01-25T08:55:38;98738.38;;;4.12;64.04
35649;BME280;21768;48.562;13.414;2023-01-25T08:58:05;98728.03;;;4.09;64.02
35649;BME280;21768;48.562;13.414;2023-01-25T09:00:38;98733.38;;;4.12;64.09
35649;BME280;21768;48.562;13.414;2023-01-25T09:03:05;98736.94;;;4.14;63.97
35649;BME280;21768;48.562;13.414;2023-01-25T09:05:33;98729.44;;;4.14;64.05
35649;BME280;21768;48.562;13.414;2023-01-25T09:07:58;98730.50;;;4.16;63.92
35649;BME280;21768;48.562;13.414;2023-01-25T09:10:24;98726.94;;;4.14;63.62
35649;BME280;21768;48.562;13.414;2023-01-25T09:12:49;98722.50;;;4.12;64.00
35649;BME280;21768;48.562;13.414;2023-01-25T09:15:14;98725.94;;;4.05;63.83
35649;BME280;21768;48.562;13.414;2023-01-25T09:17:40;98726.66;;;3.97;64.15
35649;BME280;21768;48.562;13.414;2023-01-25T09:20:06;98713.47;;;3.98;64.17
35649;BME280;21768;48.562;13.414;2023-01-25T09:22:32;98722.38;;;4.03;64.05
35649;BME280;21768;48.562;13.414;2023-01-25T09:24:58;98716.09;;;4.06;64.02
35649;BME280;21768;48.562;13.414;2023-01-25T09:27:24;98713.41;;;4.12;64.06
35649;BME280;21768;48.562;13.414;2023-01-25T09:29:49;98705.72;;;4.18;63.90
35649;BME280;21768;48.562;13.414;2023-01-25T09:32:14;98709.75;;;4.24;63.88
35649;BME280;21768;48.562;13.414;2023-01-25T09:34:40;98707.94;;;4.30;63.74
35649;BME280;21768;48.562;13.414;2023-01-25T09:37:05;98706.53;;;4.25;63.70
35649;BME280;21768;48.562;13.414;2023-01-25T09:39:30;98703.53;;;4.21;63.77
35649;BME280;21768;48.562;13.414;2023-01-25T09:45:02;98694.31;;;4.13;63.43
35649;BME280;21768;48.562;13.414;2023-01-25T09:55:43;98696.59;;;4.18;63.53
35649;BME280;21768;48.562;13.414;2023-01-25T09:58:19;98690.56;;;4.16;63.87
35649;BME280;21768;48.562;13.414;2023-01-25T10:00:49;98692.09;;;4.23;63.94
35649;BME280;21768;48.562;13.414;2023-01-25T10:05:56;98696.00;;;4.28;63.55
35649;BME280;21768;48.562;13.414;2023-01-25T10:08:32;98689.56;;;4.30;63.64
35649;BME280;21768;48.562;13.414;2023-01-25T10:13:43;98682.41;;;4.33;63.39
35649;BME280;21768;48.562;13.414;2023-01-25T10:16:16;98684.56;;;4.30;63.62
35649;BME280;21768;48.562;13.414;2023-01-25T10:19:31;98680.78;;;4.33;63.64
35649;BME280;21768;48.562;13.414;2023-01-25T10:22:19;98677.28;;;4.24;63.18
35649;BME280;21768;48.562;13.414;2023-01-25T10:30:22;98659.16;;;4.41;63.40
35649;BME280;21768;48.562;13.414;2023-01-25T10:32:51;98660.38;;;4.44;63.36
35649;BME280;21768;48.562;13.414;2023-01-25T10:35:21;98649.56;;;4.53;63.16
35649;BME280;21768;48.562;13.414;2023-01-25T10:37:48;98647.56;;;4.57;63.02
35649;BME280;21768;48.562;13.414;2023-01-25T10:40:18;98644.19;;;4.57;62.78
35649;BME280;21768;48.562;13.414;2023-01-25T10:43:01;98642.13;;;4.45;62.77
35649;BME280;21768;48.562;13.414;2023-01-25T10:45:27;98639.50;;;4.44;62.80
35649;BME280;21768;48.562;13.414;2023-01-25T10:48:00;98627.88;;;4.44;62.81
35649;BME280;21768;48.562;13.414;2023-01-25T10:53:03;98620.84;;;4.33;62.58
35649;BME280;21768;48.562;13.414;2023-01-25T10:55:28;98610.28;;;4.36;62.87
35649;BME280;21768;48.562;13.414;2023-01-25T10:57:55;98606.19;;;4.36;63.19
35649;BME280;21768;48.562;13.414;2023-01-25T11:00:27;98601.53;;;4.39;62.97
35649;BME280;21768;48.562;13.414;2023-01-25T11:02:54;98602.16;;;4.45;63.07
35649;BME280;21768;48.562;13.414;2023-01-25T11:05:34;98592.16;;;4.45;62.86
35649;BME280;21768;48.562;13.414;2023-01-25T11:08:22;98595.41;;;4.44;62.79
35649;BME280;21768;48.562;13.414;2023-01-25T11:10:49;98591.59;;;4.48;62.88
35649;BME280;21768;48.562;13.414;2023-01-25T11:15:50;98570.56;;;4.46;62.86
35649;BME280;21768;48.562;13.414;2023-01-25T11:20:44;98571.44;;;4.47;62.47
35649;BME280;21768;48.562;13.414;2023-01-25T11:23:24;98557.03;;;4.44;62.64
35649;BME280;21768;48.562;13.414;2023-01-25T11:25:50;98562.50;;;4.49;62.80
35649;BME280;21768;48.562;13.414;2023-01-25T11:28:23;98551.06;;;4.51;62.76
35649;BME280;21768;48.562;13.414;2023-01-25T11:30:52;98549.28;;;4.50;62.93
35649;BME280;21768;48.562;13.414;2023-01-25T11:33:20;98546.41;;;4.54;62.78
35649;BME280;21768;48.562;13.414;2023-01-25T11:38:21;98534.22;;;4.57;63.02
35649;BME280;21768;48.562;13.414;2023-01-25T11:41:11;98529.88;;;4.63;63.00
35649;BME280;21768;48.562;13.414;2023-01-25T11:49:38;98521.34;;;4.61;62.76
35649;BME280;21768;48.562;13.414;2023-01-25T11:54:50;98504.16;;;4.64;62.41
35649;BME280;21768;48.562;13.414;2023-01-25T12:02:46;98495.22;;;4.66;62.53
35649;BME280;21768;48.562;13.414;2023-01-25T12:11:01;98483.84;;;4.61;62.64
35649;BME280;21768;48.562;13.414;2023-01-25T12:25:24;98459.34;;;4.65;62.57
35649;BME280;21768;48.562;13.414;2023-01-25T12:28:18;98457.72;;;4.66;62.57
35649;BME280;21768;48.562;13.414;2023-01-25T12:30:52;98453.78;;;4.68;62.37
35649;BME280;21768;48.562;13.414;2023-01-25T12:33:37;98447.00;;;4.67;62.50
35649;BME280;21768;48.562;13.414;2023-01-25T12:44:06;98437.75;;;4.66;62.54
35649;BME280;21768;48.562;13.414;2023-01-25T12:52:06;98412.59;;;4.64;62.68
35649;BME280;21768;48.562;13.414;2023-01-25T12:54:39;98415.66;;;4.62;62.79
35649;BME280;21768;48.562;13.414;2023-01-25T13:00:18;98407.28;;;4.61;62.75
35649;BME280;21768;48.562;13.414;2023-01-25T13:02:49;98406.53;;;4.62;62.69
35649;BME280;21768;48.562;13.414;2023-01-25T13:08:07;98404.69;;;4.53;62.65
35649;BME280;21768;48.562;13.414;2023-01-25T13:10:39;98402.88;;;4.43;62.78
35649;BME280;21768;48.562;13.414;2023-01-25T13:13:39;98396.19;;;4.35;62.76
35649;BME280;21768;48.562;13.414;2023-01-25T13:18:57;98391.66;;;4.39;62.48
35649;BME280;21768;48.562;13.414;2023-01-25T13:26:47;98373.13;;;4.37;63.11
35649;BME280;21768;48.562;13.414;2023-01-25T13:31:59;98380.47;;;4.36;63.02
35649;BME280;21768;48.562;13.414;2023-01-25T13:37:14;98378.78;;;4.43;62.86
35649;BME280;21768;48.562;13.414;2023-01-25T13:42:19;98368.19;;;4.46;62.82
35649;BME280;21768;48.562;13.414;2023-01-25T13:44:47;98368.13;;;4.37;62.73
35649;BME280;21768;48.562;13.414;2023-01-25T13:47:22;98373.84;;;4.36;62.83
35649;BME280;21768;48.562;13.414;2023-01-25T13:53:01;98353.88;;;4.21;62.61
35649;BME280;21768;48.562;13.414;2023-01-25T13:55:29;98357.84;;;4.19;63.05
35649;BME280;21768;48.562;13.414;2023-01-25T14:01:04;98343.81;;;4.28;63.42
35649;BME280;21768;48.562;13.414;2023-01-25T14:03:38;98344.28;;;4.32;63.08
35649;BME280;21768;48.562;13.414;2023-01-25T14:06:06;98336.38;;;4.36;63.27
35649;BME280;21768;48.562;13.414;2023-01-25T14:08:38;98325.25;;;4.41;63.09
35649;BME280;21768;48.562;13.414;2023-01-25T14:11:04;98326.47;;;4.45;63.13
35649;BME280;21768;48.562;13.414;2023-01-25T14:13:29;98319.69;;;4.44;63.04
35649;BME280;21768;48.562;13.414;2023-01-25T14:15:57;98315.88;;;4.48;63.11
35649;BME280;21768;48.562;13.414;2023-01-25T14:21:16;98319.66;;;4.60;63.09
35649;BME280;21768;48.562;13.414;2023-01-25T14:23:42;98317.16;;;4.60;62.86
35649;BME280;21768;48.562;13.414;2023-01-25T14:26:26;98319.41;;;4.50;62.62
35649;BME280;21768;48.562;13.414;2023-01-25T14:28:56;98322.31;;;4.45;62.80
35649;BME280;21768;48.562;13.414;2023-01-25T14:31:28;98320.59;;;4.44;62.99
35649;BME280;21768;48.562;13.414;2023-01-25T14:33:55;98325.88;;;4.48;62.93
35649;BME280;21768;48.562;13.414;2023-01-25T14:36:26;98318.81;;;4.43;62.87
35649;BME280;21768;48.562;13.414;2023-01-25T14:38:53;98315.84;;;4.39;63.08
35649;BME280;21768;48.562;13.414;2023-01-25T14:41:28;98313.19;;;4.37;63.14
35649;BME280;21768;48.562;13.414;2023-01-25T14:43:58;98314.94;;;4.38;63.10
35649;BME280;21768;48.562;13.414;2023-01-25T14:52:14;98321.66;;;4.31;63.26
35649;BME280;21768;48.562;13.414;2023-01-25T14:54:56;98320.59;;;4.29;63.08
35649;BME280;21768;48.562;13.414;2023-01-25T14:57:34;98313.75;;;4.35;63.29
35649;BME280;21768;48.562;13.414;2023-01-25T15:00:06;98311.09;;;4.33;63.17
35649;BME280;21768;48.562;13.414;2023-01-25T15:05:21;98304.13;;;4.06;63.77
35649;BME280;21768;48.562;13.414;2023-01-25T15:07:52;98300.03;;;4.07;63.15
35649;BME280;21768;48.562;13.414;2023-01-25T15:10:31;98300.03;;;4.07;63.22
35649;BME280;21768;48.562;13.414;2023-01-25T15:15:35;98289.94;;;4.14;63.34
35649;BME280;21768;48.562;13.414;2023-01-25T15:18:01;98295.00;;;4.23;63.29
35649;BME280;21768;48.562;13.414;2023-01-25T15:20:37;98295.16;;;4.24;63.38